createdAt,value
2023-12-02T00:02:10.927Z,99650.00
2023-12-02T00:04:46.218Z,99660.00
2023-12-02T00:07:20.402Z,99652.00
2023-12-02T00:09:54.180Z,99655.00
2023-12-02T00:12:28.002Z,99646.00
2023-12-02T00:15:01.829Z,99655.00
2023-12-02T00:17:35.719Z,99650.00
2023-12-02T00:20:13.088Z,99650.00
2023-12-02T00:22:46.813Z,99649.00
2023-12-02T00:25:20.683Z,99660.00
2023-12-02T00:27:54.438Z,99661.00
2023-12-02T00:30:28.020Z,99647.00
2023-12-02T00:33:01.861Z,99661.00
2023-12-02T00:35:37.348Z,99653.00
2023-12-02T00:38:11.183Z,99648.00
2023-12-02T00:40:44.650Z,99656.00
2023-12-02T00:43:18.494Z,99662.00
2023-12-02T00:45:52.078Z,99658.00
2023-12-02T00:48:26.575Z,99654.00
2023-12-02T00:51:02.416Z,99656.00
2023-12-02T00:53:36.130Z,99622.00
2023-12-02T00:56:11.041Z,99671.00
2023-12-02T00:58:44.829Z,99661.00
2023-12-02T01:01:18.671Z,99656.00
2023-12-02T01:03:52.884Z,99659.00
2023-12-02T01:06:28.473Z,99666.00
2023-12-02T01:09:02.372Z,99661.00
2023-12-02T01:11:36.279Z,99662.00
2023-12-02T01:14:12.707Z,99669.00
2023-12-02T01:16:46.705Z,99671.00
2023-12-02T01:19:20.034Z,99675.00
2023-12-02T01:21:56.849Z,99665.00
2023-12-02T01:24:30.832Z,99657.00
2023-12-02T01:27:05.489Z,99675.00
2023-12-02T01:29:39.061Z,99684.00
2023-12-02T01:32:12.444Z,99689.00
2023-12-02T01:34:46.299Z,99686.00
2023-12-02T01:37:21.605Z,99679.00
2023-12-02T01:39:55.439Z,99694.00
2023-12-02T01:42:30.171Z,99681.00
2023-12-02T01:45:04.915Z,99676.00
2023-12-02T01:47:38.589Z,99687.00
2023-12-02T01:50:13.595Z,99684.00
2023-12-02T01:52:48.843Z,99690.00
2023-12-02T01:55:22.391Z,99694.00
2023-12-02T01:57:57.859Z,99689.00
2023-12-02T02:00:31.488Z,99690.00
2023-12-02T02:03:05.294Z,99694.00
2023-12-02T02:05:39.584Z,99699.00
2023-12-02T02:08:14.882Z,99702.00
2023-12-02T02:10:48.874Z,99710.00
2023-12-02T02:13:22.973Z,99707.00
2023-12-02T02:15:57.216Z,99702.00
2023-12-02T02:18:34.156Z,99706.00
2023-12-02T02:21:08.499Z,99694.00
2023-12-02T02:23:45.065Z,99706.00
2023-12-02T02:26:18.661Z,99715.00
2023-12-02T02:28:52.457Z,99708.00
2023-12-02T02:31:26.379Z,99707.00
2023-12-02T02:33:59.923Z,99709.00
2023-12-02T02:36:33.530Z,99705.00
2023-12-02T02:39:09.720Z,99708.00
2023-12-02T02:41:46.412Z,99705.00
2023-12-02T02:44:20.106Z,99712.00
2023-12-02T02:46:54.940Z,99716.00
2023-12-02T02:49:28.947Z,99713.00
2023-12-02T02:52:02.743Z,99710.00
2023-12-02T02:54:38.179Z,99724.00
2023-12-02T02:57:12.185Z,99705.00
2023-12-02T02:59:45.907Z,99719.00
2023-12-02T03:02:19.770Z,99721.00
2023-12-02T03:04:53.838Z,99716.00
2023-12-02T03:07:27.618Z,99722.00
2023-12-02T03:10:03.413Z,99724.00
2023-12-02T03:12:37.142Z,99728.00
2023-12-02T03:15:12.104Z,99671.00
2023-12-02T03:17:45.475Z,99723.00
2023-12-02T03:20:19.258Z,99724.00
2023-12-02T03:22:54.620Z,99724.00
2023-12-02T03:25:30.447Z,99722.00
2023-12-02T03:28:04.617Z,99722.00
2023-12-02T03:30:38.529Z,99728.00
2023-12-02T03:33:12.347Z,99726.00
2023-12-02T03:35:45.716Z,99722.00
2023-12-02T03:38:19.226Z,99726.00
2023-12-02T03:40:54.142Z,99728.00
2023-12-02T03:43:27.925Z,99726.00
2023-12-02T03:46:01.466Z,99734.00
2023-12-02T03:48:35.637Z,99692.00
2023-12-02T03:51:10.252Z,99734.00
2023-12-02T03:53:44.652Z,99715.00
2023-12-02T03:56:20.363Z,99725.00
2023-12-02T03:58:56.343Z,99729.00
2023-12-02T04:01:30.358Z,99733.00
2023-12-02T04:04:03.821Z,99725.00
2023-12-02T04:06:37.597Z,99716.00
2023-12-02T04:09:12.459Z,99734.00
2023-12-02T04:11:49.461Z,99748.00
2023-12-02T04:14:23.039Z,99751.00
2023-12-02T04:16:57.219Z,99757.00
2023-12-02T04:19:30.990Z,99758.00
2023-12-02T04:22:07.967Z,99766.00
2023-12-02T04:24:42.126Z,99773.00
2023-12-02T04:27:17.970Z,99771.00
2023-12-02T04:29:51.743Z,99773.00
2023-12-02T04:32:25.370Z,99769.00
2023-12-02T04:35:00.704Z,99777.00
2023-12-02T04:37:34.462Z,99767.00
2023-12-02T04:40:12.892Z,99762.00
2023-12-02T04:42:48.016Z,99780.00
2023-12-02T04:45:22.059Z,99780.00
2023-12-02T04:47:55.661Z,99783.00
2023-12-02T04:50:29.753Z,99747.00
2023-12-02T04:53:03.346Z,99778.00
2023-12-02T04:55:37.575Z,99785.00
2023-12-02T04:58:13.121Z,99789.00
2023-12-02T05:00:46.573Z,99804.00
2023-12-02T05:03:22.114Z,99791.00
2023-12-02T05:05:55.538Z,99790.00
2023-12-02T05:08:29.515Z,99790.00
2023-12-02T05:11:03.258Z,99796.00
2023-12-02T05:13:40.322Z,99788.00
2023-12-02T05:16:14.103Z,99773.00
2023-12-02T05:18:48.247Z,99808.00
2023-12-02T05:21:23.218Z,99806.00
2023-12-02T05:23:57.017Z,99809.00
2023-12-02T05:26:30.568Z,99801.00
2023-12-02T05:29:07.501Z,99821.00
2023-12-02T05:31:41.226Z,99835.00
2023-12-02T05:34:15.032Z,99834.00
2023-12-02T05:36:49.420Z,99827.00
2023-12-02T05:39:23.143Z,99829.00
2023-12-02T05:41:58.688Z,99833.00
2023-12-02T05:44:33.832Z,99833.00
2023-12-02T05:47:07.709Z,99833.00
2023-12-02T05:49:45.733Z,99841.00
2023-12-02T05:52:19.563Z,99835.00
2023-12-02T05:54:54.141Z,99833.00
2023-12-02T05:57:30.189Z,99846.00
2023-12-02T06:00:07.074Z,99840.00
2023-12-02T06:02:43.329Z,99842.00
2023-12-02T06:05:18.408Z,99848.00
2023-12-02T06:07:54.149Z,99848.00
2023-12-02T06:10:41.581Z,99847.00
2023-12-02T06:13:15.353Z,99827.00
2023-12-02T06:15:50.587Z,99853.00
2023-12-02T06:18:24.385Z,99850.00
2023-12-02T06:20:58.912Z,99852.00
2023-12-02T06:23:32.813Z,99835.00
2023-12-02T06:26:08.842Z,99851.00
2023-12-02T06:28:42.748Z,99860.00
2023-12-02T06:31:18.733Z,99860.00
2023-12-02T06:33:52.324Z,99857.00
2023-12-02T06:36:25.945Z,99870.00
2023-12-02T06:39:00.813Z,99864.00
2023-12-02T06:41:34.753Z,99869.00
2023-12-02T06:44:08.612Z,99872.00
2023-12-02T06:46:43.713Z,99864.00
2023-12-02T06:49:17.335Z,99855.00
2023-12-02T06:51:51.459Z,99880.00
2023-12-02T06:54:25.738Z,99881.00
2023-12-02T06:56:59.483Z,99882.00
2023-12-02T06:59:33.274Z,99893.00
2023-12-02T07:02:09.554Z,99903.00
2023-12-02T07:04:43.119Z,99901.00
2023-12-02T07:07:17.710Z,99860.00
2023-12-02T07:09:52.657Z,99910.00
2023-12-02T07:12:26.240Z,99917.00
2023-12-02T07:14:59.782Z,99927.00
2023-12-02T07:17:34.932Z,99920.00
2023-12-02T07:20:10.499Z,99924.00
2023-12-02T07:22:44.364Z,99929.00
2023-12-02T07:25:18.761Z,99925.00
2023-12-02T07:27:53.739Z,99938.00
2023-12-02T07:30:29.545Z,99936.00
2023-12-02T07:33:05.247Z,99938.00
2023-12-02T07:35:39.493Z,99926.00
2023-12-02T07:38:13.612Z,99952.00
2023-12-02T07:40:48.585Z,99951.00
2023-12-02T07:43:22.375Z,99949.00
2023-12-02T07:45:55.995Z,99950.00
2023-12-02T07:48:31.141Z,99947.00
2023-12-02T07:51:06.424Z,99949.00
2023-12-02T07:53:41.158Z,99948.00
2023-12-02T07:56:14.725Z,99943.00
2023-12-02T07:58:48.335Z,99953.00
2023-12-02T08:01:22.273Z,99948.00
2023-12-02T08:03:58.748Z,99952.00
2023-12-02T08:06:33.234Z,99958.00
2023-12-02T08:09:07.429Z,99960.00
2023-12-02T08:11:41.106Z,99967.00
2023-12-02T08:14:14.886Z,99965.00
2023-12-02T08:16:49.748Z,99973.00
2023-12-02T08:19:25.042Z,99973.00
2023-12-02T08:21:59.251Z,99976.00
2023-12-02T08:24:37.847Z,99979.00
2023-12-02T08:27:12.579Z,99986.00
2023-12-02T08:29:46.445Z,99979.00
2023-12-02T08:32:20.440Z,99999.00
2023-12-02T08:34:59.805Z,99996.00
2023-12-02T08:37:33.334Z,99991.00
2023-12-02T08:40:09.349Z,100002.00
2023-12-02T08:42:43.188Z,99956.00
2023-12-02T08:45:17.883Z,100009.00
2023-12-02T08:47:51.546Z,99957.00
2023-12-02T08:50:26.786Z,100007.00
2023-12-02T08:53:00.625Z,99979.00
2023-12-02T08:55:34.712Z,100009.00
2023-12-02T08:58:08.300Z,100011.00
2023-12-02T09:00:41.641Z,100009.00
2023-12-02T09:03:14.915Z,100016.00
2023-12-02T09:05:50.175Z,100015.00
2023-12-02T09:08:24.860Z,100026.00
2023-12-02T09:10:58.785Z,100028.00
2023-12-02T09:13:47.936Z,100029.00
2023-12-02T09:16:23.938Z,100037.00
2023-12-02T09:18:58.430Z,100039.00
2023-12-02T09:24:43.771Z,100046.00
2023-12-02T09:28:13.175Z,100046.00
2023-12-02T09:31:07.713Z,100043.00
2023-12-02T09:33:44.028Z,100051.00
2023-12-02T09:36:34.883Z,100050.00
2023-12-02T09:40:27.157Z,100042.00
2023-12-02T09:43:24.068Z,100043.00
2023-12-02T09:46:26.827Z,100026.00
2023-12-02T09:49:27.649Z,100033.00
2023-12-02T09:52:34.828Z,100029.00
2023-12-02T09:55:35.191Z,100038.00
2023-12-02T09:58:26.105Z,100047.00
2023-12-02T10:01:16.015Z,100054.00
2023-12-02T10:04:12.282Z,100048.00
2023-12-02T10:07:05.986Z,100053.00
2023-12-02T10:09:50.706Z,100053.00
2023-12-02T10:12:41.696Z,100049.00
2023-12-02T10:15:18.030Z,100053.00
2023-12-02T10:17:57.242Z,100048.00
2023-12-02T10:20:36.220Z,100052.00
2023-12-02T10:23:25.710Z,100044.00
2023-12-02T10:26:08.262Z,100048.00
2023-12-02T10:29:00.084Z,100045.00
2023-12-02T10:31:38.096Z,100044.00
2023-12-02T10:34:23.414Z,100051.00
2023-12-02T10:37:01.333Z,100055.00
2023-12-02T10:39:43.769Z,100040.00
2023-12-02T10:42:23.952Z,100051.00
2023-12-02T10:45:07.302Z,100047.00
2023-12-02T10:47:41.977Z,100052.00
2023-12-02T10:50:18.104Z,100057.00
2023-12-02T10:53:02.913Z,100051.00
2023-12-02T10:55:39.865Z,100049.00
2023-12-02T10:58:16.126Z,100053.00
2023-12-02T11:01:00.808Z,100040.00
2023-12-02T11:03:46.447Z,100050.00
2023-12-02T11:06:31.000Z,100049.00
2023-12-02T11:09:13.044Z,100045.00
2023-12-02T11:12:01.857Z,100031.00
2023-12-02T11:14:45.790Z,100053.00
2023-12-02T11:17:38.421Z,100052.00
2023-12-02T11:20:23.710Z,100047.00
2023-12-02T11:23:24.004Z,100053.00
2023-12-02T11:26:19.443Z,100060.00
2023-12-02T11:29:18.531Z,100070.00
2023-12-02T11:32:24.351Z,100070.00
2023-12-02T11:35:16.459Z,100070.00
2023-12-02T11:38:01.268Z,100078.00
2023-12-02T11:40:53.549Z,100069.00
2023-12-02T11:43:45.641Z,100079.00
2023-12-02T11:46:26.350Z,100074.00
2023-12-02T11:49:23.392Z,100066.00
2023-12-02T11:52:14.911Z,100075.00
2023-12-02T11:55:09.984Z,100063.00
2023-12-02T11:58:01.585Z,100059.00
2023-12-02T12:00:52.283Z,100058.00
2023-12-02T12:03:49.414Z,100066.00
2023-12-02T12:06:44.066Z,100076.00
2023-12-02T12:09:31.130Z,100070.00
2023-12-02T12:12:09.812Z,100066.00
2023-12-02T12:14:46.587Z,100073.00
2023-12-02T12:17:20.949Z,100068.00
2023-12-02T12:19:55.208Z,100065.00
2023-12-02T12:22:30.338Z,100076.00
2023-12-02T12:25:05.715Z,100074.00
2023-12-02T12:27:39.286Z,100068.00
2023-12-02T12:30:13.948Z,100058.00
2023-12-02T12:32:48.603Z,100068.00
2023-12-02T12:35:22.815Z,100075.00
2023-12-02T12:37:58.606Z,100070.00
2023-12-02T12:40:33.626Z,100064.00
2023-12-02T12:43:10.149Z,100082.00
2023-12-02T12:45:44.575Z,100093.00
2023-12-02T12:48:25.250Z,100091.00
2023-12-02T12:51:04.195Z,100095.00
2023-12-02T12:53:47.906Z,100092.00
2023-12-02T12:56:35.522Z,100097.00
2023-12-02T12:59:13.753Z,100066.00
2023-12-02T13:02:13.831Z,100104.00
2023-12-02T13:05:00.653Z,100105.00
2023-12-02T13:07:42.506Z,100107.00
2023-12-02T13:10:19.923Z,100114.00
2023-12-02T13:12:59.882Z,100116.00
2023-12-02T13:15:40.979Z,100122.00
2023-12-02T13:18:15.887Z,100121.00
2023-12-02T13:20:51.584Z,100129.00
2023-12-02T13:23:28.300Z,100128.00
2023-12-02T13:26:08.408Z,100142.00
2023-12-02T13:28:43.127Z,100139.00
2023-12-02T13:31:19.881Z,100136.00
2023-12-02T13:34:15.858Z,100144.00
2023-12-02T13:36:55.694Z,100156.00
2023-12-02T13:39:34.605Z,100155.00
2023-12-02T13:42:14.350Z,100162.00
2023-12-02T13:44:57.813Z,100160.00
2023-12-02T13:47:51.666Z,100169.00
2023-12-02T13:50:31.871Z,100176.00
2023-12-02T13:53:21.789Z,100167.00
2023-12-02T13:56:15.262Z,100171.00
2023-12-02T13:59:12.829Z,100176.00
2023-12-02T14:02:02.768Z,100177.00
2023-12-02T14:05:05.240Z,100176.00
2023-12-02T14:07:48.317Z,100188.00
2023-12-02T14:10:25.502Z,100189.00
2023-12-02T14:13:40.472Z,100190.00
2023-12-02T14:16:36.087Z,100190.00
2023-12-02T14:20:04.902Z,100197.00
2023-12-02T14:23:09.106Z,100199.00
2023-12-02T14:26:02.573Z,100206.00
2023-12-02T14:28:56.822Z,100198.00
2023-12-02T14:31:56.140Z,100197.00
2023-12-02T14:35:17.786Z,100195.00
2023-12-02T14:38:20.077Z,100193.00
2023-12-02T14:41:18.937Z,100187.00
2023-12-02T14:44:09.392Z,100190.00
2023-12-02T14:46:57.977Z,100188.00
2023-12-02T14:49:37.832Z,100196.00
2023-12-02T14:52:12.585Z,100197.00
2023-12-02T14:54:47.862Z,100206.00
2023-12-02T14:57:23.697Z,100209.00
2023-12-02T15:00:02.615Z,100215.00
2023-12-02T15:02:41.466Z,100215.00
2023-12-02T15:05:17.749Z,100216.00
2023-12-02T15:07:54.887Z,100221.00
2023-12-02T15:10:37.519Z,100238.00
2023-12-02T15:13:20.395Z,100228.00
2023-12-02T15:15:56.080Z,100233.00
2023-12-02T15:18:33.580Z,100245.00
2023-12-02T15:21:09.962Z,100248.00
2023-12-02T15:23:45.024Z,100254.00
2023-12-02T15:26:21.270Z,100271.00
2023-12-02T15:28:57.982Z,100272.00
2023-12-02T15:31:34.607Z,100274.00
2023-12-02T15:34:09.825Z,100277.00
2023-12-02T15:36:43.917Z,100280.00
2023-12-02T15:39:18.112Z,100277.00
2023-12-02T15:41:53.792Z,100285.00
2023-12-02T15:44:27.445Z,100290.00
2023-12-02T15:47:03.996Z,100293.00
2023-12-02T15:49:39.264Z,100247.00
2023-12-02T15:52:13.699Z,100309.00
2023-12-02T15:54:47.793Z,100315.00
2023-12-02T15:57:22.418Z,100321.00
2023-12-02T15:59:57.031Z,100325.00
2023-12-02T16:02:31.878Z,100325.00
2023-12-02T16:05:09.823Z,100324.00
2023-12-02T16:07:45.959Z,100319.00
2023-12-02T16:10:19.654Z,100314.00
2023-12-02T16:12:53.605Z,100336.00
2023-12-02T16:15:29.716Z,100335.00
2023-12-02T16:18:05.020Z,100331.00
2023-12-02T16:20:41.268Z,100337.00
2023-12-02T16:23:16.772Z,100288.00
2023-12-02T16:25:50.627Z,100350.00
2023-12-02T16:28:24.364Z,100342.00
2023-12-02T16:30:58.960Z,100352.00
2023-12-02T16:33:33.484Z,100354.00
2023-12-02T16:36:10.908Z,100353.00
2023-12-02T16:38:44.600Z,100357.00
2023-12-02T16:41:18.018Z,100357.00
2023-12-02T16:43:51.898Z,100363.00
2023-12-02T16:46:25.644Z,100335.00
2023-12-02T16:48:59.524Z,100367.00
2023-12-02T16:51:36.062Z,100371.00
2023-12-02T16:54:09.939Z,100374.00
2023-12-02T16:56:44.828Z,100367.00
2023-12-02T16:59:49.588Z,100371.00
2023-12-02T17:02:35.369Z,100374.00
2023-12-02T17:06:00.242Z,100386.00
2023-12-02T17:08:36.789Z,100394.00
2023-12-02T17:11:12.881Z,100397.00
2023-12-02T17:13:56.197Z,100401.00
2023-12-02T17:16:56.858Z,100400.00
2023-12-02T17:19:31.731Z,100406.00
2023-12-02T17:22:10.239Z,100388.00
2023-12-02T17:24:46.593Z,100399.00
2023-12-02T17:27:42.994Z,100419.00
2023-12-02T17:30:17.750Z,100407.00
2023-12-02T17:32:51.495Z,100407.00
2023-12-02T17:35:25.611Z,100417.00
2023-12-02T17:37:59.369Z,100420.00
2023-12-02T17:40:34.469Z,100426.00
2023-12-02T17:43:08.176Z,100420.00
2023-12-02T17:45:42.236Z,100428.00
2023-12-02T17:48:16.070Z,100428.00
2023-12-02T17:50:49.933Z,100428.00
2023-12-02T17:53:24.532Z,100428.00
2023-12-02T17:56:00.967Z,100430.00
2023-12-02T17:58:34.705Z,100430.00
2023-12-02T18:01:10.195Z,100435.00
2023-12-02T18:03:43.901Z,100439.00
2023-12-02T18:06:19.098Z,100436.00
2023-12-02T18:08:53.051Z,100439.00
2023-12-02T18:11:28.639Z,100421.00
2023-12-02T18:14:02.555Z,100443.00
2023-12-02T18:16:36.379Z,100420.00
2023-12-02T18:19:10.132Z,100444.00
2023-12-02T18:21:46.659Z,100442.00
2023-12-02T18:24:20.300Z,100420.00
2023-12-02T18:26:55.763Z,100443.00
2023-12-02T18:29:31.158Z,100444.00
2023-12-02T18:32:06.664Z,100444.00
2023-12-02T18:34:41.811Z,100429.00
2023-12-02T18:37:15.601Z,100441.00
2023-12-02T18:39:49.780Z,100428.00
2023-12-02T18:42:25.133Z,100437.00
2023-12-02T18:44:58.566Z,100440.00
2023-12-02T18:47:32.288Z,100445.00
2023-12-02T18:50:07.180Z,100447.00
2023-12-02T18:52:40.556Z,100444.00
2023-12-02T18:55:14.140Z,100450.00
2023-12-02T18:57:49.460Z,100457.00
2023-12-02T19:00:23.321Z,100454.00
2023-12-02T19:02:57.357Z,100444.00
2023-12-02T19:05:32.358Z,100407.00
2023-12-02T19:08:06.561Z,100441.00
2023-12-02T19:10:42.094Z,100460.00
2023-12-02T19:13:18.345Z,100458.00
2023-12-02T19:15:52.374Z,100459.00
2023-12-02T19:18:26.001Z,100459.00
2023-12-02T19:21:01.217Z,100463.00
2023-12-02T19:23:35.023Z,100463.00
2023-12-02T19:26:09.167Z,100467.00
2023-12-02T19:28:44.247Z,100469.00
2023-12-02T19:31:17.967Z,100441.00
2023-12-02T19:33:51.785Z,100447.00
2023-12-02T19:36:26.792Z,100470.00
2023-12-02T19:39:00.536Z,100478.00
2023-12-02T19:41:35.286Z,100477.00
2023-12-02T19:44:11.679Z,100477.00
2023-12-02T19:46:46.575Z,100474.00
2023-12-02T19:49:20.492Z,100441.00
2023-12-02T19:51:54.806Z,100478.00
2023-12-02T19:54:28.501Z,100478.00
2023-12-02T19:57:04.016Z,100477.00
2023-12-02T19:59:39.151Z,100491.00
2023-12-02T20:02:13.440Z,100488.00
2023-12-02T20:04:47.274Z,100487.00
2023-12-02T20:07:21.186Z,100468.00
2023-12-02T20:09:55.140Z,100488.00
2023-12-02T20:12:28.880Z,100499.00
2023-12-02T20:15:04.750Z,100453.00
2023-12-02T20:17:39.693Z,100492.00
2023-12-02T20:20:14.249Z,100510.00
2023-12-02T20:22:49.405Z,100502.00
2023-12-02T20:25:23.104Z,100507.00
2023-12-02T20:27:56.621Z,100512.00
2023-12-02T20:30:31.722Z,100508.00
2023-12-02T20:33:05.317Z,100511.00
2023-12-02T20:35:39.132Z,100517.00
2023-12-02T20:38:14.124Z,100520.00
2023-12-02T20:40:48.030Z,100527.00
2023-12-02T20:43:21.942Z,100497.00
2023-12-02T20:45:57.318Z,100525.00
2023-12-02T20:48:30.999Z,100527.00
2023-12-02T20:51:05.888Z,100535.00
2023-12-02T20:53:39.886Z,100535.00
2023-12-02T20:56:13.969Z,100535.00
2023-12-02T20:58:47.981Z,100528.00
2023-12-02T21:01:23.014Z,100522.00
2023-12-02T21:03:57.109Z,100511.00
2023-12-02T21:06:30.697Z,100511.00
2023-12-02T21:09:04.716Z,100514.00
2023-12-02T21:11:38.240Z,100497.00
2023-12-02T21:14:13.393Z,100517.00
2023-12-02T21:16:48.427Z,100532.00
2023-12-02T21:19:22.041Z,100527.00
2023-12-02T21:21:55.780Z,100532.00
2023-12-02T21:24:29.542Z,100530.00
2023-12-02T21:27:03.816Z,100525.00
2023-12-02T21:29:38.404Z,100531.00
2023-12-02T21:32:23.959Z,100505.00
2023-12-02T21:35:10.999Z,100544.00
2023-12-02T21:37:45.114Z,100541.00
2023-12-02T21:40:22.345Z,100545.00
2023-12-02T21:42:55.764Z,100526.00
2023-12-02T21:45:44.464Z,100548.00
2023-12-02T21:48:41.351Z,100537.00
2023-12-02T21:51:24.855Z,100546.00
2023-12-02T21:54:02.890Z,100545.00
2023-12-02T21:56:43.821Z,100529.00
2023-12-02T21:59:19.843Z,100537.00
2023-12-02T22:01:56.875Z,100526.00
2023-12-02T22:04:42.578Z,100527.00
2023-12-02T22:07:24.980Z,100526.00
2023-12-02T22:10:04.193Z,100512.00
2023-12-02T22:12:39.876Z,100525.00
2023-12-02T22:15:23.125Z,100521.00
2023-12-02T22:17:57.388Z,100529.00
2023-12-02T22:20:32.933Z,100534.00
2023-12-02T22:23:13.191Z,100536.00
2023-12-02T22:25:46.820Z,100550.00
2023-12-02T22:28:21.217Z,100551.00
2023-12-02T22:30:54.954Z,100558.00
2023-12-02T22:33:31.944Z,100562.00
2023-12-02T22:36:11.036Z,100561.00
2023-12-02T22:38:47.592Z,100577.00
2023-12-02T22:41:21.291Z,100566.00
2023-12-02T22:43:59.066Z,100572.00
2023-12-02T22:46:33.017Z,100569.00
2023-12-02T22:49:08.430Z,100581.00
2023-12-02T22:51:44.037Z,100578.00
2023-12-02T22:54:28.602Z,100586.00
2023-12-02T22:57:03.753Z,100586.00
2023-12-02T22:59:37.792Z,100582.00
2023-12-02T23:02:13.445Z,100543.00
2023-12-02T23:04:47.354Z,100589.00
2023-12-02T23:07:57.696Z,100599.00
2023-12-02T23:10:39.956Z,100595.00
2023-12-02T23:13:51.443Z,100597.00
2023-12-02T23:16:40.113Z,100597.00
2023-12-02T23:19:32.258Z,100600.00
2023-12-02T23:22:09.152Z,100595.00
2023-12-02T23:24:44.394Z,100599.00
2023-12-02T23:27:44.183Z,100590.00
2023-12-02T23:30:23.889Z,100580.00
2023-12-02T23:32:58.232Z,100611.00
2023-12-02T23:35:31.698Z,100607.00
2023-12-02T23:38:08.232Z,100608.00
2023-12-02T23:40:48.641Z,100582.00
2023-12-02T23:43:37.042Z,100581.00
2023-12-02T23:46:11.421Z,100601.00
2023-12-02T23:48:45.236Z,100598.00
2023-12-02T23:51:19.226Z,100599.00
2023-12-02T23:53:54.301Z,100597.00
2023-12-02T23:56:30.367Z,100601.00
2023-12-02T23:59:04.525Z,100608.00
